sensor_id;sensor_type;location;lat;lon;timestamp;P1;durP1;ratioP1;P2;durP2;ratioP2
85137;SDS011;75497;42.708;23.330;2024-02-16T00:00:06;31.42;;;15.23;;
85137;SDS011;75497;42.708;23.330;2024-02-16T00:02:32;24.20;;;12.57;;
85137;SDS011;75497;42.708;23.330;2024-02-16T00:04:58;23.65;;;11.27;;
85137;SDS011;75497;42.708;23.330;2024-02-16T00:07:24;23.27;;;9.93;;
85137;SDS011;75497;42.708;23.330;2024-02-16T00:09:50;20.73;;;10.80;;
85137;SDS011;75497;42.708;23.330;2024-02-16T00:12:15;23.42;;;10.20;;
85137;SDS011;75497;42.708;23.330;2024-02-16T00:14:42;23.23;;;10.35;;
85137;SDS011;75497;42.708;23.330;2024-02-16T00:17:08;24.20;;;10.88;;
85137;SDS011;75497;42.708;23.330;2024-02-16T00:19:35;21.33;;;10.30;;
85137;SDS011;75497;42.708;23.330;2024-02-16T00:22:01;22.65;;;10.82;;
85137;SDS011;75497;42.708;23.330;2024-02-16T00:24:27;22.17;;;10.43;;
85137;SDS011;75497;42.708;23.330;2024-02-16T00:26:52;21.98;;;10.05;;
85137;SDS011;75497;42.708;23.330;2024-02-16T00:29:18;20.15;;;9.02;;
85137;SDS011;75497;42.708;23.330;2024-02-16T00:31:44;20.73;;;9.50;;
85137;SDS011;75497;42.708;23.330;2024-02-16T00:34:10;21.42;;;9.40;;
85137;SDS011;75497;42.708;23.330;2024-02-16T00:36:36;20.65;;;8.35;;
85137;SDS011;75497;42.708;23.330;2024-02-16T00:39:01;19.52;;;9.40;;
85137;SDS011;75497;42.708;23.330;2024-02-16T00:41:28;19.75;;;8.70;;
85137;SDS011;75497;42.708;23.330;2024-02-16T00:43:54;17.08;;;8.20;;
85137;SDS011;75497;42.708;23.330;2024-02-16T00:46:21;19.35;;;8.73;;
85137;SDS011;75497;42.708;23.330;2024-02-16T00:48:48;17.00;;;8.65;;
85137;SDS011;75497;42.708;23.330;2024-02-16T00:51:15;17.77;;;8.50;;
85137;SDS011;75497;42.708;23.330;2024-02-16T00:53:41;19.48;;;9.63;;
85137;SDS011;75497;42.708;23.330;2024-02-16T00:56:06;23.88;;;9.57;;
85137;SDS011;75497;42.708;23.330;2024-02-16T00:58:32;18.35;;;8.15;;
85137;SDS011;75497;42.708;23.330;2024-02-16T01:00:58;18.98;;;8.05;;
85137;SDS011;75497;42.708;23.330;2024-02-16T01:03:24;20.00;;;8.02;;
85137;SDS011;75497;42.708;23.330;2024-02-16T01:05:51;18.90;;;9.20;;
85137;SDS011;75497;42.708;23.330;2024-02-16T01:08:18;21.48;;;9.15;;
85137;SDS011;75497;42.708;23.330;2024-02-16T01:10:43;16.27;;;8.65;;
85137;SDS011;75497;42.708;23.330;2024-02-16T01:13:09;20.33;;;8.77;;
85137;SDS011;75497;42.708;23.330;2024-02-16T01:15:35;20.50;;;9.43;;
85137;SDS011;75497;42.708;23.330;2024-02-16T01:18:02;20.45;;;8.90;;
85137;SDS011;75497;42.708;23.330;2024-02-16T01:20:29;20.48;;;9.43;;
85137;SDS011;75497;42.708;23.330;2024-02-16T01:22:56;18.63;;;9.45;;
85137;SDS011;75497;42.708;23.330;2024-02-16T01:25:22;20.20;;;9.15;;
85137;SDS011;75497;42.708;23.330;2024-02-16T01:27:47;18.77;;;8.55;;
85137;SDS011;75497;42.708;23.330;2024-02-16T01:30:13;22.00;;;10.27;;
85137;SDS011;75497;42.708;23.330;2024-02-16T01:32:40;20.40;;;10.00;;
85137;SDS011;75497;42.708;23.330;2024-02-16T01:35:07;21.80;;;9.57;;
85137;SDS011;75497;42.708;23.330;2024-02-16T01:37:33;18.58;;;8.63;;
85137;SDS011;75497;42.708;23.330;2024-02-16T01:39:58;19.67;;;8.80;;
85137;SDS011;75497;42.708;23.330;2024-02-16T01:42:24;20.80;;;9.07;;
85137;SDS011;75497;42.708;23.330;2024-02-16T01:44:50;20.40;;;8.80;;
85137;SDS011;75497;42.708;23.330;2024-02-16T01:47:16;16.83;;;7.78;;
85137;SDS011;75497;42.708;23.330;2024-02-16T01:49:44;18.08;;;9.48;;
85137;SDS011;75497;42.708;23.330;2024-02-16T01:52:10;17.73;;;9.68;;
85137;SDS011;75497;42.708;23.330;2024-02-16T01:54:36;24.77;;;9.80;;
85137;SDS011;75497;42.708;23.330;2024-02-16T01:57:03;24.42;;;10.00;;
85137;SDS011;75497;42.708;23.330;2024-02-16T01:59:31;19.67;;;9.50;;
85137;SDS011;75497;42.708;23.330;2024-02-16T02:01:59;18.60;;;9.35;;
85137;SDS011;75497;42.708;23.330;2024-02-16T02:04:25;20.08;;;9.43;;
85137;SDS011;75497;42.708;23.330;2024-02-16T02:06:52;17.95;;;8.45;;
85137;SDS011;75497;42.708;23.330;2024-02-16T02:09:17;20.65;;;9.70;;
85137;SDS011;75497;42.708;23.330;2024-02-16T02:11:43;17.15;;;9.15;;
85137;SDS011;75497;42.708;23.330;2024-02-16T02:14:09;21.75;;;9.50;;
85137;SDS011;75497;42.708;23.330;2024-02-16T02:16:35;23.10;;;10.52;;
85137;SDS011;75497;42.708;23.330;2024-02-16T02:19:02;21.63;;;9.90;;
85137;SDS011;75497;42.708;23.330;2024-02-16T02:21:28;19.20;;;8.02;;
85137;SDS011;75497;42.708;23.330;2024-02-16T02:23:53;19.63;;;9.75;;
85137;SDS011;75497;42.708;23.330;2024-02-16T02:26:19;20.50;;;9.75;;
85137;SDS011;75497;42.708;23.330;2024-02-16T02:28:46;18.52;;;8.98;;
85137;SDS011;75497;42.708;23.330;2024-02-16T02:31:11;18.77;;;10.13;;
85137;SDS011;75497;42.708;23.330;2024-02-16T02:33:37;18.15;;;8.85;;
85137;SDS011;75497;42.708;23.330;2024-02-16T02:36:03;20.90;;;10.57;;
85137;SDS011;75497;42.708;23.330;2024-02-16T02:38:29;17.20;;;8.98;;
85137;SDS011;75497;42.708;23.330;2024-02-16T02:40:55;21.25;;;9.15;;
85137;SDS011;75497;42.708;23.330;2024-02-16T02:43:22;20.83;;;8.73;;
85137;SDS011;75497;42.708;23.330;2024-02-16T02:45:48;22.23;;;10.10;;
85137;SDS011;75497;42.708;23.330;2024-02-16T02:48:14;21.77;;;9.38;;
85137;SDS011;75497;42.708;23.330;2024-02-16T02:50:39;25.75;;;10.23;;
85137;SDS011;75497;42.708;23.330;2024-02-16T02:53:05;18.77;;;10.25;;
85137;SDS011;75497;42.708;23.330;2024-02-16T02:55:31;26.45;;;10.38;;
85137;SDS011;75497;42.708;23.330;2024-02-16T02:57:56;21.10;;;10.18;;
85137;SDS011;75497;42.708;23.330;2024-02-16T03:00:23;23.48;;;10.15;;
85137;SDS011;75497;42.708;23.330;2024-02-16T03:02:49;25.58;;;10.68;;
85137;SDS011;75497;42.708;23.330;2024-02-16T03:05:15;23.15;;;10.90;;
85137;SDS011;75497;42.708;23.330;2024-02-16T03:07:41;19.70;;;10.15;;
85137;SDS011;75497;42.708;23.330;2024-02-16T03:10:07;18.85;;;10.23;;
85137;SDS011;75497;42.708;23.330;2024-02-16T03:12:35;23.23;;;11.02;;
85137;SDS011;75497;42.708;23.330;2024-02-16T03:15:01;22.52;;;11.23;;
85137;SDS011;75497;42.708;23.330;2024-02-16T03:17:27;24.40;;;11.32;;
85137;SDS011;75497;42.708;23.330;2024-02-16T03:19:52;21.02;;;11.40;;
85137;SDS011;75497;42.708;23.330;2024-02-16T03:22:18;24.90;;;10.43;;
85137;SDS011;75497;42.708;23.330;2024-02-16T03:24:43;26.40;;;9.50;;
85137;SDS011;75497;42.708;23.330;2024-02-16T03:27:10;18.85;;;8.75;;
85137;SDS011;75497;42.708;23.330;2024-02-16T03:29:36;20.10;;;9.50;;
85137;SDS011;75497;42.708;23.330;2024-02-16T03:32:01;20.33;;;10.02;;
85137;SDS011;75497;42.708;23.330;2024-02-16T03:34:27;20.20;;;9.73;;
85137;SDS011;75497;42.708;23.330;2024-02-16T03:36:53;22.48;;;8.38;;
85137;SDS011;75497;42.708;23.330;2024-02-16T03:39:19;20.52;;;8.82;;
85137;SDS011;75497;42.708;23.330;2024-02-16T03:41:45;19.13;;;8.82;;
85137;SDS011;75497;42.708;23.330;2024-02-16T03:44:14;20.33;;;9.25;;
85137;SDS011;75497;42.708;23.330;2024-02-16T03:46:42;19.00;;;8.65;;
85137;SDS011;75497;42.708;23.330;2024-02-16T03:49:08;18.90;;;7.85;;
85137;SDS011;75497;42.708;23.330;2024-02-16T03:51:35;17.55;;;8.48;;
85137;SDS011;75497;42.708;23.330;2024-02-16T03:54:01;20.27;;;7.30;;
85137;SDS011;75497;42.708;23.330;2024-02-16T03:56:27;16.58;;;7.60;;
85137;SDS011;75497;42.708;23.330;2024-02-16T03:58:53;18.80;;;8.50;;
85137;SDS011;75497;42.708;23.330;2024-02-16T04:01:18;21.08;;;7.65;;
85137;SDS011;75497;42.708;23.330;2024-02-16T04:03:44;16.13;;;8.18;;
85137;SDS011;75497;42.708;23.330;2024-02-16T04:06:09;21.40;;;8.43;;
85137;SDS011;75497;42.708;23.330;2024-02-16T04:08:35;16.90;;;7.35;;
85137;SDS011;75497;42.708;23.330;2024-02-16T04:11:01;15.15;;;7.18;;
85137;SDS011;75497;42.708;23.330;2024-02-16T04:13:27;17.75;;;7.30;;
85137;SDS011;75497;42.708;23.330;2024-02-16T04:15:53;19.88;;;8.85;;
85137;SDS011;75497;42.708;23.330;2024-02-16T04:18:19;18.00;;;7.82;;
85137;SDS011;75497;42.708;23.330;2024-02-16T04:20:44;25.50;;;8.35;;
85137;SDS011;75497;42.708;23.330;2024-02-16T04:23:10;17.25;;;7.55;;
85137;SDS011;75497;42.708;23.330;2024-02-16T04:25:35;19.90;;;9.05;;
85137;SDS011;75497;42.708;23.330;2024-02-16T04:28:01;21.80;;;9.73;;
85137;SDS011;75497;42.708;23.330;2024-02-16T04:30:26;26.05;;;10.73;;
85137;SDS011;75497;42.708;23.330;2024-02-16T04:32:52;25.90;;;11.50;;
85137;SDS011;75497;42.708;23.330;2024-02-16T04:35:18;30.90;;;12.65;;
85137;SDS011;75497;42.708;23.330;2024-02-16T04:37:44;29.65;;;13.10;;
85137;SDS011;75497;42.708;23.330;2024-02-16T04:40:15;30.38;;;13.02;;
85137;SDS011;75497;42.708;23.330;2024-02-16T04:42:41;35.63;;;14.70;;
85137;SDS011;75497;42.708;23.330;2024-02-16T04:45:07;34.95;;;12.55;;
85137;SDS011;75497;42.708;23.330;2024-02-16T04:47:33;28.08;;;11.95;;
85137;SDS011;75497;42.708;23.330;2024-02-16T04:49:58;28.67;;;12.55;;
85137;SDS011;75497;42.708;23.330;2024-02-16T04:52:24;24.35;;;12.25;;
85137;SDS011;75497;42.708;23.330;2024-02-16T04:54:51;35.22;;;12.68;;
85137;SDS011;75497;42.708;23.330;2024-02-16T04:57:16;25.73;;;11.68;;
85137;SDS011;75497;42.708;23.330;2024-02-16T04:59:42;26.05;;;12.45;;
85137;SDS011;75497;42.708;23.330;2024-02-16T05:02:07;30.02;;;12.55;;
85137;SDS011;75497;42.708;23.330;2024-02-16T05:04:33;28.20;;;12.60;;
85137;SDS011;75497;42.708;23.330;2024-02-16T05:06:59;24.73;;;12.27;;
85137;SDS011;75497;42.708;23.330;2024-02-16T05:09:25;32.55;;;12.95;;
85137;SDS011;75497;42.708;23.330;2024-02-16T05:11:51;32.30;;;14.45;;
85137;SDS011;75497;42.708;23.330;2024-02-16T05:14:17;39.75;;;15.43;;
85137;SDS011;75497;42.708;23.330;2024-02-16T05:16:43;22.80;;;12.18;;
85137;SDS011;75497;42.708;23.330;2024-02-16T05:19:10;25.77;;;12.60;;
85137;SDS011;75497;42.708;23.330;2024-02-16T05:21:36;26.05;;;12.38;;
85137;SDS011;75497;42.708;23.330;2024-02-16T05:24:02;29.33;;;13.10;;
85137;SDS011;75497;42.708;23.330;2024-02-16T05:26:27;34.45;;;15.15;;
85137;SDS011;75497;42.708;23.330;2024-02-16T05:28:53;34.92;;;15.00;;
85137;SDS011;75497;42.708;23.330;2024-02-16T05:31:19;32.92;;;14.38;;
85137;SDS011;75497;42.708;23.330;2024-02-16T05:33:45;33.83;;;16.15;;
85137;SDS011;75497;42.708;23.330;2024-02-16T05:36:16;26.10;;;14.40;;
85137;SDS011;75497;42.708;23.330;2024-02-16T05:38:43;40.67;;;15.93;;
85137;SDS011;75497;42.708;23.330;2024-02-16T05:41:09;28.67;;;15.00;;
85137;SDS011;75497;42.708;23.330;2024-02-16T05:43:36;35.28;;;15.35;;
85137;SDS011;75497;42.708;23.330;2024-02-16T05:46:03;32.40;;;15.65;;
85137;SDS011;75497;42.708;23.330;2024-02-16T05:48:34;33.53;;;15.77;;
85137;SDS011;75497;42.708;23.330;2024-02-16T05:51:04;37.90;;;16.10;;
85137;SDS011;75497;42.708;23.330;2024-02-16T05:53:30;33.08;;;16.20;;
85137;SDS011;75497;42.708;23.330;2024-02-16T05:55:56;26.70;;;13.70;;
85137;SDS011;75497;42.708;23.330;2024-02-16T05:58:23;31.00;;;13.77;;
85137;SDS011;75497;42.708;23.330;2024-02-16T06:00:49;32.22;;;16.38;;
85137;SDS011;75497;42.708;23.330;2024-02-16T06:03:15;32.97;;;16.45;;
85137;SDS011;75497;42.708;23.330;2024-02-16T06:05:40;33.25;;;16.05;;
85137;SDS011;75497;42.708;23.330;2024-02-16T06:08:06;33.60;;;17.95;;
85137;SDS011;75497;42.708;23.330;2024-02-16T06:10:32;34.20;;;17.40;;
85137;SDS011;75497;42.708;23.330;2024-02-16T06:12:59;30.83;;;15.18;;
85137;SDS011;75497;42.708;23.330;2024-02-16T06:15:24;36.38;;;17.45;;
85137;SDS011;75497;42.708;23.330;2024-02-16T06:17:50;29.77;;;16.80;;
85137;SDS011;75497;42.708;23.330;2024-02-16T06:20:16;24.48;;;13.10;;
85137;SDS011;75497;42.708;23.330;2024-02-16T06:22:41;22.67;;;12.23;;
85137;SDS011;75497;42.708;23.330;2024-02-16T06:25:07;27.30;;;13.82;;
85137;SDS011;75497;42.708;23.330;2024-02-16T06:27:33;24.70;;;12.68;;
85137;SDS011;75497;42.708;23.330;2024-02-16T06:29:59;27.75;;;14.40;;
85137;SDS011;75497;42.708;23.330;2024-02-16T06:32:25;39.58;;;20.88;;
85137;SDS011;75497;42.708;23.330;2024-02-16T06:34:52;32.20;;;16.73;;
85137;SDS011;75497;42.708;23.330;2024-02-16T06:37:18;34.53;;;18.67;;
85137;SDS011;75497;42.708;23.330;2024-02-16T06:39:43;30.75;;;16.10;;
85137;SDS011;75497;42.708;23.330;2024-02-16T06:42:09;30.88;;;14.10;;
85137;SDS011;75497;42.708;23.330;2024-02-16T06:44:38;30.38;;;12.98;;
85137;SDS011;75497;42.708;23.330;2024-02-16T06:47:04;40.38;;;14.35;;
85137;SDS011;75497;42.708;23.330;2024-02-16T06:49:30;27.67;;;13.25;;
85137;SDS011;75497;42.708;23.330;2024-02-16T06:51:56;30.35;;;14.52;;
85137;SDS011;75497;42.708;23.330;2024-02-16T06:54:22;32.28;;;14.68;;
85137;SDS011;75497;42.708;23.330;2024-02-16T06:56:49;29.75;;;16.02;;
85137;SDS011;75497;42.708;23.330;2024-02-16T06:59:16;33.33;;;13.68;;
85137;SDS011;75497;42.708;23.330;2024-02-16T07:01:42;32.50;;;16.30;;
85137;SDS011;75497;42.708;23.330;2024-02-16T07:04:08;30.25;;;14.07;;
85137;SDS011;75497;42.708;23.330;2024-02-16T07:06:34;31.67;;;16.02;;
85137;SDS011;75497;42.708;23.330;2024-02-16T07:09:00;30.23;;;15.70;;
85137;SDS011;75497;42.708;23.330;2024-02-16T07:11:27;31.75;;;15.18;;
85137;SDS011;75497;42.708;23.330;2024-02-16T07:13:53;31.90;;;16.35;;
85137;SDS011;75497;42.708;23.330;2024-02-16T07:16:19;30.85;;;16.63;;
85137;SDS011;75497;42.708;23.330;2024-02-16T07:18:45;33.70;;;14.48;;
85137;SDS011;75497;42.708;23.330;2024-02-16T07:21:11;33.72;;;14.27;;
85137;SDS011;75497;42.708;23.330;2024-02-16T07:23:37;27.52;;;15.05;;
85137;SDS011;75497;42.708;23.330;2024-02-16T07:26:03;25.67;;;14.50;;
85137;SDS011;75497;42.708;23.330;2024-02-16T07:28:29;30.60;;;15.68;;
85137;SDS011;75497;42.708;23.330;2024-02-16T07:30:56;28.92;;;14.73;;
85137;SDS011;75497;42.708;23.330;2024-02-16T07:33:21;24.65;;;14.65;;
85137;SDS011;75497;42.708;23.330;2024-02-16T07:35:49;27.45;;;15.13;;
85137;SDS011;75497;42.708;23.330;2024-02-16T07:38:15;26.50;;;13.57;;
85137;SDS011;75497;42.708;23.330;2024-02-16T07:40:41;25.30;;;12.75;;
85137;SDS011;75497;42.708;23.330;2024-02-16T07:43:06;29.25;;;12.82;;
85137;SDS011;75497;42.708;23.330;2024-02-16T07:45:33;24.70;;;12.13;;
85137;SDS011;75497;42.708;23.330;2024-02-16T07:47:59;23.05;;;10.82;;
85137;SDS011;75497;42.708;23.330;2024-02-16T07:50:28;23.17;;;12.00;;
85137;SDS011;75497;42.708;23.330;2024-02-16T07:52:53;28.50;;;11.25;;
85137;SDS011;75497;42.708;23.330;2024-02-16T07:55:19;22.10;;;10.05;;
85137;SDS011;75497;42.708;23.330;2024-02-16T07:57:46;20.40;;;10.48;;
85137;SDS011;75497;42.708;23.330;2024-02-16T08:00:12;18.58;;;9.18;;
85137;SDS011;75497;42.708;23.330;2024-02-16T08:02:38;20.45;;;10.38;;
85137;SDS011;75497;42.708;23.330;2024-02-16T08:05:08;15.77;;;8.73;;
85137;SDS011;75497;42.708;23.330;2024-02-16T08:07:37;19.13;;;8.73;;
85137;SDS011;75497;42.708;23.330;2024-02-16T08:10:03;30.95;;;13.25;;
85137;SDS011;75497;42.708;23.330;2024-02-16T08:12:29;24.13;;;13.23;;
85137;SDS011;75497;42.708;23.330;2024-02-16T08:14:57;42.53;;;19.23;;
85137;SDS011;75497;42.708;23.330;2024-02-16T08:17:23;43.58;;;22.88;;
85137;SDS011;75497;42.708;23.330;2024-02-16T08:19:54;39.38;;;20.77;;
85137;SDS011;75497;42.708;23.330;2024-02-16T08:22:20;32.92;;;18.95;;
85137;SDS011;75497;42.708;23.330;2024-02-16T08:24:46;36.15;;;19.85;;
85137;SDS011;75497;42.708;23.330;2024-02-16T08:27:12;35.08;;;17.98;;
85137;SDS011;75497;42.708;23.330;2024-02-16T08:29:40;33.38;;;18.52;;
85137;SDS011;75497;42.708;23.330;2024-02-16T08:32:06;30.85;;;16.08;;
85137;SDS011;75497;42.708;23.330;2024-02-16T08:34:31;29.98;;;16.13;;
85137;SDS011;75497;42.708;23.330;2024-02-16T08:36:57;31.40;;;16.20;;
85137;SDS011;75497;42.708;23.330;2024-02-16T08:39:23;27.58;;;14.63;;
85137;SDS011;75497;42.708;23.330;2024-02-16T08:41:50;29.63;;;14.05;;
85137;SDS011;75497;42.708;23.330;2024-02-16T08:44:16;30.73;;;14.13;;
85137;SDS011;75497;42.708;23.330;2024-02-16T08:46:43;24.92;;;13.13;;
85137;SDS011;75497;42.708;23.330;2024-02-16T08:49:11;28.42;;;14.13;;
85137;SDS011;75497;42.708;23.330;2024-02-16T08:51:37;24.98;;;14.77;;
85137;SDS011;75497;42.708;23.330;2024-02-16T08:54:02;27.38;;;14.63;;
85137;SDS011;75497;42.708;23.330;2024-02-16T08:56:29;25.23;;;14.35;;
85137;SDS011;75497;42.708;23.330;2024-02-16T08:58:55;30.33;;;15.07;;
85137;SDS011;75497;42.708;23.330;2024-02-16T09:01:34;33.30;;;17.00;;
85137;SDS011;75497;42.708;23.330;2024-02-16T09:04:00;25.92;;;16.10;;
85137;SDS011;75497;42.708;23.330;2024-02-16T09:06:27;26.42;;;14.70;;
85137;SDS011;75497;42.708;23.330;2024-02-16T09:08:53;26.58;;;13.13;;
85137;SDS011;75497;42.708;23.330;2024-02-16T09:11:19;32.28;;;15.45;;
85137;SDS011;75497;42.708;23.330;2024-02-16T09:13:45;23.95;;;13.85;;
85137;SDS011;75497;42.708;23.330;2024-02-16T09:16:12;23.13;;;13.30;;
85137;SDS011;75497;42.708;23.330;2024-02-16T09:18:38;20.48;;;10.90;;
85137;SDS011;75497;42.708;23.330;2024-02-16T09:21:03;27.90;;;12.30;;
85137;SDS011;75497;42.708;23.330;2024-02-16T09:23:30;20.08;;;9.85;;
85137;SDS011;75497;42.708;23.330;2024-02-16T09:26:00;15.60;;;8.80;;
85137;SDS011;75497;42.708;23.330;2024-02-16T09:28:27;10.23;;;4.53;;
85137;SDS011;75497;42.708;23.330;2024-02-16T09:30:53;14.15;;;7.53;;
85137;SDS011;75497;42.708;23.330;2024-02-16T09:33:20;13.45;;;7.50;;
85137;SDS011;75497;42.708;23.330;2024-02-16T09:35:47;16.00;;;8.05;;
85137;SDS011;75497;42.708;23.330;2024-02-16T09:38:13;17.25;;;7.45;;
85137;SDS011;75497;42.708;23.330;2024-02-16T09:40:39;18.98;;;7.82;;
85137;SDS011;75497;42.708;23.330;2024-02-16T09:43:05;21.02;;;8.38;;
85137;SDS011;75497;42.708;23.330;2024-02-16T09:45:32;20.00;;;9.27;;
85137;SDS011;75497;42.708;23.330;2024-02-16T09:47:58;14.88;;;8.70;;
85137;SDS011;75497;42.708;23.330;2024-02-16T09:50:24;11.25;;;6.20;;
85137;SDS011;75497;42.708;23.330;2024-02-16T09:52:52;13.20;;;6.20;;
85137;SDS011;75497;42.708;23.330;2024-02-16T09:55:20;10.52;;;6.10;;
85137;SDS011;75497;42.708;23.330;2024-02-16T09:57:47;10.82;;;6.18;;
85137;SDS011;75497;42.708;23.330;2024-02-16T10:00:23;11.05;;;6.78;;
85137;SDS011;75497;42.708;23.330;2024-02-16T10:02:48;10.48;;;6.85;;
85137;SDS011;75497;42.708;23.330;2024-02-16T10:05:14;9.25;;;5.15;;
85137;SDS011;75497;42.708;23.330;2024-02-16T10:07:42;9.65;;;5.10;;
85137;SDS011;75497;42.708;23.330;2024-02-16T10:10:24;10.32;;;4.25;;
85137;SDS011;75497;42.708;23.330;2024-02-16T10:13:00;14.75;;;6.07;;
85137;SDS011;75497;42.708;23.330;2024-02-16T10:15:26;12.32;;;6.38;;
85137;SDS011;75497;42.708;23.330;2024-02-16T10:17:58;13.77;;;7.20;;
85137;SDS011;75497;42.708;23.330;2024-02-16T10:20:28;10.93;;;6.75;;
85137;SDS011;75497;42.708;23.330;2024-02-16T10:25:39;13.80;;;5.95;;
85137;SDS011;75497;42.708;23.330;2024-02-16T10:28:12;10.85;;;4.88;;
85137;SDS011;75497;42.708;23.330;2024-02-16T10:30:42;9.65;;;5.18;;
85137;SDS011;75497;42.708;23.330;2024-02-16T10:33:09;9.38;;;4.60;;
85137;SDS011;75497;42.708;23.330;2024-02-16T10:35:37;10.43;;;5.07;;
85137;SDS011;75497;42.708;23.330;2024-02-16T10:38:04;7.93;;;4.82;;
85137;SDS011;75497;42.708;23.330;2024-02-16T10:40:38;8.80;;;5.05;;
85137;SDS011;75497;42.708;23.330;2024-02-16T10:43:05;8.68;;;4.40;;
85137;SDS011;75497;42.708;23.330;2024-02-16T10:45:35;8.95;;;5.25;;
85137;SDS011;75497;42.708;23.330;2024-02-16T10:48:02;8.48;;;4.45;;
85137;SDS011;75497;42.708;23.330;2024-02-16T10:50:29;8.95;;;3.88;;
85137;SDS011;75497;42.708;23.330;2024-02-16T10:52:57;8.00;;;4.28;;
85137;SDS011;75497;42.708;23.330;2024-02-16T10:55:29;8.02;;;4.18;;
85137;SDS011;75497;42.708;23.330;2024-02-16T10:57:56;8.20;;;4.10;;
85137;SDS011;75497;42.708;23.330;2024-02-16T11:00:22;7.90;;;3.83;;
85137;SDS011;75497;42.708;23.330;2024-02-16T11:02:52;8.70;;;4.85;;
85137;SDS011;75497;42.708;23.330;2024-02-16T11:05:31;9.10;;;5.25;;
85137;SDS011;75497;42.708;23.330;2024-02-16T11:08:00;7.75;;;4.35;;
85137;SDS011;75497;42.708;23.330;2024-02-16T11:10:29;10.43;;;5.10;;
85137;SDS011;75497;42.708;23.330;2024-02-16T11:13:01;9.32;;;5.00;;
85137;SDS011;75497;42.708;23.330;2024-02-16T11:15:30;8.20;;;3.70;;
85137;SDS011;75497;42.708;23.330;2024-02-16T11:17:58;8.95;;;3.70;;
85137;SDS011;75497;42.708;23.330;2024-02-16T11:20:26;7.88;;;3.65;;
85137;SDS011;75497;42.708;23.330;2024-02-16T11:22:52;9.13;;;3.97;;
85137;SDS011;75497;42.708;23.330;2024-02-16T11:25:18;7.53;;;3.95;;
85137;SDS011;75497;42.708;23.330;2024-02-16T11:27:46;7.85;;;3.75;;
85137;SDS011;75497;42.708;23.330;2024-02-16T11:30:12;6.38;;;2.72;;
85137;SDS011;75497;42.708;23.330;2024-02-16T11:32:38;5.55;;;2.97;;
85137;SDS011;75497;42.708;23.330;2024-02-16T11:35:08;8.55;;;3.88;;
85137;SDS011;75497;42.708;23.330;2024-02-16T11:37:35;6.93;;;3.50;;
85137;SDS011;75497;42.708;23.330;2024-02-16T11:40:01;10.02;;;4.00;;
85137;SDS011;75497;42.708;23.330;2024-02-16T11:42:26;7.40;;;3.65;;
85137;SDS011;75497;42.708;23.330;2024-02-16T11:44:53;7.75;;;3.97;;
85137;SDS011;75497;42.708;23.330;2024-02-16T11:47:21;8.27;;;4.10;;
85137;SDS011;75497;42.708;23.330;2024-02-16T11:50:00;6.45;;;3.60;;
85137;SDS011;75497;42.708;23.330;2024-02-16T11:52:27;5.88;;;2.90;;
85137;SDS011;75497;42.708;23.330;2024-02-16T11:54:54;8.75;;;2.75;;
85137;SDS011;75497;42.708;23.330;2024-02-16T11:57:19;6.60;;;3.80;;
85137;SDS011;75497;42.708;23.330;2024-02-16T11:59:45;6.45;;;3.40;;
85137;SDS011;75497;42.708;23.330;2024-02-16T12:02:16;7.22;;;3.88;;
85137;SDS011;75497;42.708;23.330;2024-02-16T12:04:57;12.07;;;3.50;;
85137;SDS011;75497;42.708;23.330;2024-02-16T12:07:24;7.82;;;3.95;;
85137;SDS011;75497;42.708;23.330;2024-02-16T12:09:57;10.27;;;4.00;;
85137;SDS011;75497;42.708;23.330;2024-02-16T12:12:24;7.38;;;3.80;;
85137;SDS011;75497;42.708;23.330;2024-02-16T12:14:50;7.03;;;3.70;;
85137;SDS011;75497;42.708;23.330;2024-02-16T12:17:17;8.25;;;3.63;;
85137;SDS011;75497;42.708;23.330;2024-02-16T12:19:45;10.98;;;4.05;;
85137;SDS011;75497;42.708;23.330;2024-02-16T12:22:17;8.52;;;4.00;;
85137;SDS011;75497;42.708;23.330;2024-02-16T12:24:44;10.20;;;4.55;;
85137;SDS011;75497;42.708;23.330;2024-02-16T12:27:10;14.48;;;5.32;;
85137;SDS011;75497;42.708;23.330;2024-02-16T12:29:36;13.10;;;5.38;;
85137;SDS011;75497;42.708;23.330;2024-02-16T12:32:02;8.38;;;3.90;;
85137;SDS011;75497;42.708;23.330;2024-02-16T12:34:27;7.72;;;4.15;;
85137;SDS011;75497;42.708;23.330;2024-02-16T12:36:53;6.93;;;4.15;;
85137;SDS011;75497;42.708;23.330;2024-02-16T12:39:19;7.82;;;4.35;;
85137;SDS011;75497;42.708;23.330;2024-02-16T12:41:44;7.28;;;3.65;;
85137;SDS011;75497;42.708;23.330;2024-02-16T12:44:11;11.55;;;5.53;;
85137;SDS011;75497;42.708;23.330;2024-02-16T12:46:37;15.77;;;5.78;;
85137;SDS011;75497;42.708;23.330;2024-02-16T12:49:04;9.75;;;4.75;;
85137;SDS011;75497;42.708;23.330;2024-02-16T12:51:29;8.65;;;4.47;;
85137;SDS011;75497;42.708;23.330;2024-02-16T12:53:55;9.30;;;3.95;;
85137;SDS011;75497;42.708;23.330;2024-02-16T12:56:21;8.43;;;4.53;;
85137;SDS011;75497;42.708;23.330;2024-02-16T12:58:46;9.35;;;3.80;;
85137;SDS011;75497;42.708;23.330;2024-02-16T13:01:13;8.88;;;4.22;;
85137;SDS011;75497;42.708;23.330;2024-02-16T13:03:38;7.75;;;4.03;;
85137;SDS011;75497;42.708;23.330;2024-02-16T13:06:04;14.05;;;5.45;;
85137;SDS011;75497;42.708;23.330;2024-02-16T13:08:30;8.35;;;4.88;;
85137;SDS011;75497;42.708;23.330;2024-02-16T13:10:57;10.35;;;5.60;;
85137;SDS011;75497;42.708;23.330;2024-02-16T13:13:24;9.57;;;5.20;;
85137;SDS011;75497;42.708;23.330;2024-02-16T13:15:50;13.60;;;6.72;;
85137;SDS011;75497;42.708;23.330;2024-02-16T13:18:16;11.05;;;6.10;;
85137;SDS011;75497;42.708;23.330;2024-02-16T13:20:45;9.65;;;4.60;;
85137;SDS011;75497;42.708;23.330;2024-02-16T13:23:12;7.03;;;3.63;;
85137;SDS011;75497;42.708;23.330;2024-02-16T13:25:38;9.73;;;4.50;;
85137;SDS011;75497;42.708;23.330;2024-02-16T13:28:03;7.45;;;3.38;;
85137;SDS011;75497;42.708;23.330;2024-02-16T13:30:30;11.10;;;4.03;;
85137;SDS011;75497;42.708;23.330;2024-02-16T13:32:56;7.38;;;3.58;;
85137;SDS011;75497;42.708;23.330;2024-02-16T13:35:22;9.55;;;4.25;;
85137;SDS011;75497;42.708;23.330;2024-02-16T13:37:49;7.43;;;3.55;;
85137;SDS011;75497;42.708;23.330;2024-02-16T13:40:15;7.22;;;3.85;;
85137;SDS011;75497;42.708;23.330;2024-02-16T13:42:43;11.32;;;4.57;;
85137;SDS011;75497;42.708;23.330;2024-02-16T13:45:09;8.10;;;3.72;;
85137;SDS011;75497;42.708;23.330;2024-02-16T13:47:36;14.35;;;6.10;;
85137;SDS011;75497;42.708;23.330;2024-02-16T13:50:05;9.68;;;3.83;;
85137;SDS011;75497;42.708;23.330;2024-02-16T13:52:31;8.38;;;4.00;;
85137;SDS011;75497;42.708;23.330;2024-02-16T13:54:57;14.00;;;5.40;;
85137;SDS011;75497;42.708;23.330;2024-02-16T13:57:23;12.73;;;5.25;;
85137;SDS011;75497;42.708;23.330;2024-02-16T13:59:49;9.23;;;3.35;;
85137;SDS011;75497;42.708;23.330;2024-02-16T14:02:14;8.43;;;3.72;;
85137;SDS011;75497;42.708;23.330;2024-02-16T14:04:40;7.25;;;3.65;;
85137;SDS011;75497;42.708;23.330;2024-02-16T14:07:07;8.88;;;3.53;;
85137;SDS011;75497;42.708;23.330;2024-02-16T14:09:32;10.98;;;4.78;;
85137;SDS011;75497;42.708;23.330;2024-02-16T14:11:58;8.05;;;4.00;;
85137;SDS011;75497;42.708;23.330;2024-02-16T14:14:24;10.30;;;4.50;;
85137;SDS011;75497;42.708;23.330;2024-02-16T14:16:50;15.00;;;5.85;;